Terminal Aerodrome Forecast
Issued by NWS Buffalo, NY

Home | Current Version | Previous Version | Text Only | Print | Product List | Glossary On
Versions: 1 2 3 4 5 6 7 8 9 10 11 12 13 14 15 16 17 18 19 20 21 22 23 24 25
124
FTUS41 KBUF 050535
TAFBUF
TAF
KBUF 050535Z 0506/0606 05005KT P6SM BKN100
     FM050900 05005KT P6SM BKN012
     FM051400 05008KT P6SM BKN025
     FM051600 04012KT P6SM BKN040
     FM052300 02008KT P6SM BKN040
     FM060300 35004KT P6SM BKN040=

USA.gov is the U.S. government's official web portal to all federal, state and local government web resources and services.